Time;durP1;ratioP1;P1;durP2;ratioP2;P2;SDS_P1;SDS_P2;PMS_P1;PMS_P2;Temp;Humidity;BMP_temperature;BMP_pressure;BME280_temperature;BME280_humidity;BME280_pressure;Samples;Min_cycle;Max_cycle;Signal;HPM_P1;HPM_P2
2022/08/24 00:01:02;;;;;;;;;;;21.60;42.50;;;;;;464509;255;1317;-49
2022/08/24 00:03:04;;;;;;;;;;;21.60;42.50;;;;;;464584;255;1392;-49
2022/08/24 00:05:06;;;;;;;;;;;21.60;42.50;;;;;;464229;256;1291;-49
2022/08/24 00:07:07;;;;;;;;;;;21.60;42.50;;;;;;464652;255;1468;-48
2022/08/24 00:09:08;;;;;;;;;;;21.60;42.50;;;;;;464225;256;2287;-49
2022/08/24 00:11:09;;;;;;;;;;;21.60;42.40;;;;;;464350;255;1262;-49
2022/08/24 00:13:11;;;;;;;;;;;21.60;42.40;;;;;;464261;256;1265;-49
2022/08/24 00:15:12;;;;;;;;;;;21.60;42.40;;;;;;464157;256;1243;-49
2022/08/24 00:17:13;;;;;;;;;;;21.60;42.40;;;;;;464244;256;2211;-49
2022/08/24 00:19:15;;;;;;;;;;;21.60;42.40;;;;;;464645;255;1284;-49
2022/08/24 00:21:16;;;;;;;;;;;21.60;42.40;;;;;;464631;255;1317;-49
2022/08/24 00:23:17;;;;;;;;;;;21.60;42.40;;;;;;464470;255;1310;-50
2022/08/24 00:25:19;;;;;;;;;;;21.60;42.40;;;;;;464432;255;1369;-49
2022/08/24 00:27:20;;;;;;;;;;;21.60;42.30;;;;;;464297;255;1366;-49
2022/08/24 00:29:21;;;;;;;;;;;21.60;42.40;;;;;;464631;255;1374;-49
2022/08/24 00:31:23;;;;;;;;;;;21.60;42.40;;;;;;464373;255;1338;-49
2022/08/24 00:33:24;;;;;;;;;;;21.60;42.30;;;;;;464228;255;1418;-49
2022/08/24 00:35:25;;;;;;;;;;;21.60;42.30;;;;;;464400;255;1242;-49
2022/08/24 00:37:27;;;;;;;;;;;21.60;42.30;;;;;;464222;256;3034;-49
2022/08/24 00:39:28;;;;;;;;;;;21.60;42.30;;;;;;464537;255;1335;-49
2022/08/24 00:41:29;;;;;;;;;;;21.60;42.30;;;;;;464240;256;1267;-49
2022/08/24 00:43:31;;;;;;;;;;;21.60;42.30;;;;;;464642;255;1290;-49
2022/08/24 00:45:32;;;;;;;;;;;21.60;42.30;;;;;;464437;255;1249;-49
2022/08/24 00:47:33;;;;;;;;;;;21.60;42.30;;;;;;464505;255;1265;-49
2022/08/24 00:49:35;;;;;;;;;;;21.60;42.30;;;;;;464662;255;1289;-49
2022/08/24 00:51:36;;;;;;;;;;;21.60;42.30;;;;;;464537;255;1282;-49
2022/08/24 00:53:37;;;;;;;;;;;21.50;42.30;;;;;;464286;255;1289;-49
2022/08/24 00:55:38;;;;;;;;;;;21.60;42.30;;;;;;464380;255;1286;-48
2022/08/24 00:57:40;;;;;;;;;;;21.60;42.30;;;;;;464378;255;2210;-49
2022/08/24 00:59:41;;;;;;;;;;;21.60;42.30;;;;;;464221;256;1452;-49
2022/08/24 01:01:43;;;;;;;;;;;21.60;42.30;;;;;;464322;255;1281;-48
2022/08/24 01:03:45;;;;;;;;;;;21.60;42.30;;;;;;464626;255;1334;-49
2022/08/24 01:05:46;;;;;;;;;;;21.60;42.30;;;;;;464292;255;2332;-49
2022/08/24 01:07:49;;;;;;;;;;;21.60;42.30;;;;;;464585;255;1337;-49
2022/08/24 01:09:49;;;;;;;;;;;21.60;42.30;;;;;;464648;255;1613;-49
2022/08/24 01:11:50;;;;;;;;;;;21.60;42.20;;;;;;464231;256;1300;-49
2022/08/24 01:13:52;;;;;;;;;;;21.60;42.30;;;;;;464631;255;1299;-48
2022/08/24 01:15:53;;;;;;;;;;;21.60;42.20;;;;;;464590;255;1237;-49
2022/08/24 01:20:14;;;;;;;;;;;21.60;42.20;;;;;;464521;257;1264;-49
2022/08/24 01:22:15;;;;;;;;;;;21.60;42.20;;;;;;464349;255;1312;-49
2022/08/24 01:24:16;;;;;;;;;;;21.60;42.20;;;;;;464300;255;1076;-49
2022/08/24 01:26:18;;;;;;;;;;;21.60;42.10;;;;;;464696;255;1218;-49
2022/08/24 01:28:19;;;;;;;;;;;21.60;42.20;;;;;;464305;255;1210;-48
2022/08/24 01:30:20;;;;;;;;;;;21.60;42.20;;;;;;464706;255;1110;-49
2022/08/24 01:32:22;;;;;;;;;;;21.60;42.30;;;;;;464196;256;1219;-48
2022/08/24 01:34:23;;;;;;;;;;;21.50;42.40;;;;;;464287;256;2000;-49
2022/08/24 01:36:24;;;;;;;;;;;21.50;42.40;;;;;;464206;256;1205;-49
2022/08/24 01:38:26;;;;;;;;;;;21.60;42.40;;;;;;464265;256;2210;-49
2022/08/24 01:40:27;;;;;;;;;;;21.50;42.40;;;;;;464698;255;1215;-49
2022/08/24 01:42:28;;;;;;;;;;;21.60;42.40;;;;;;464468;255;1307;-49
2022/08/24 01:44:30;;;;;;;;;;;21.50;42.30;;;;;;464515;255;1274;-49
2022/08/24 01:46:31;;;;;;;;;;;21.50;42.30;;;;;;464436;255;1337;-49
2022/08/24 01:48:32;;;;;;;;;;;21.50;42.30;;;;;;464186;256;1218;-49
2022/08/24 01:50:34;;;;;;;;;;;21.50;42.30;;;;;;464647;255;1304;-49
2022/08/24 01:52:35;;;;;;;;;;;21.50;42.30;;;;;;464232;256;1299;-49
2022/08/24 01:54:37;;;;;;;;;;;21.50;42.30;;;;;;464393;255;1324;-49
2022/08/24 01:56:38;;;;;;;;;;;21.50;42.30;;;;;;464594;255;2307;-48
2022/08/24 01:58:39;;;;;;;;;;;21.50;42.20;;;;;;464315;255;1262;-49
2022/08/24 02:00:40;;;;;;;;;;;21.50;42.20;;;;;;464170;256;1482;-49
2022/08/24 02:02:42;;;;;;;;;;;21.50;42.20;;;;;;464139;256;1281;-49
2022/08/24 02:04:43;;;;;;;;;;;21.50;42.30;;;;;;464640;255;1322;-49
2022/08/24 02:06:44;;;;;;;;;;;21.50;42.20;;;;;;464203;256;1288;-49
2022/08/24 02:08:46;;;;;;;;;;;21.60;42.30;;;;;;464589;255;1409;-49
2022/08/24 02:10:47;;;;;;;;;;;21.50;42.20;;;;;;464281;255;1732;-48
2022/08/24 02:12:56;;;;;;;;;;;21.50;42.20;;;;;;464179;256;1358;-49
2022/08/24 02:14:50;;;;;;;;;;;21.50;42.20;;;;;;464400;255;2037;-49
2022/08/24 02:16:52;;;;;;;;;;;21.50;42.20;;;;;;464499;255;2206;-48
2022/08/24 02:18:53;;;;;;;;;;;21.50;42.20;;;;;;464634;255;1352;-48
2022/08/24 02:20:54;;;;;;;;;;;21.50;42.20;;;;;;464229;255;1250;-49
2022/08/24 02:22:56;;;;;;;;;;;21.50;42.20;;;;;;464245;256;1301;-49
2022/08/24 02:24:57;;;;;;;;;;;21.50;42.20;;;;;;464237;255;1263;-49
2022/08/24 02:26:58;;;;;;;;;;;21.50;42.10;;;;;;464350;255;1298;-48
2022/08/24 02:29:00;;;;;;;;;;;21.50;42.10;;;;;;464278;255;1407;-49
2022/08/24 02:31:03;;;;;;;;;;;21.50;42.10;;;;;;464414;255;1244;-49
2022/08/24 02:33:02;;;;;;;;;;;21.50;42.10;;;;;;464148;255;1943;-49
2022/08/24 02:35:04;;;;;;;;;;;21.50;42.10;;;;;;464662;255;1329;-48
2022/08/24 02:37:05;;;;;;;;;;;21.60;42.10;;;;;;464433;255;2171;-49
2022/08/24 02:39:06;;;;;;;;;;;21.60;42.10;;;;;;464655;255;1279;-49
2022/08/24 02:41:08;;;;;;;;;;;21.60;42.10;;;;;;464196;256;1201;-49
2022/08/24 02:43:09;;;;;;;;;;;21.50;42.10;;;;;;464528;255;1247;-49
2022/08/24 02:45:10;;;;;;;;;;;21.50;42.10;;;;;;464634;255;1121;-48
2022/08/24 02:47:12;;;;;;;;;;;21.60;42.10;;;;;;464267;256;1315;-49
2022/08/24 02:49:13;;;;;;;;;;;21.50;42.00;;;;;;464623;255;1117;-49
2022/08/24 02:51:14;;;;;;;;;;;21.50;42.00;;;;;;464288;256;1212;-49
2022/08/24 02:53:16;;;;;;;;;;;21.50;42.10;;;;;;464691;255;1292;-49
2022/08/24 02:55:17;;;;;;;;;;;21.50;42.00;;;;;;464687;255;1064;-49
2022/08/24 02:57:18;;;;;;;;;;;21.50;42.00;;;;;;464380;255;2174;-49
2022/08/24 02:59:20;;;;;;;;;;;21.60;42.10;;;;;;464383;255;1267;-49
2022/08/24 03:01:21;;;;;;;;;;;21.60;42.00;;;;;;464539;255;1396;-48
2022/08/24 03:03:22;;;;;;;;;;;21.50;42.00;;;;;;464686;255;1321;-49
2022/08/24 03:05:24;;;;;;;;;;;21.60;42.00;;;;;;464658;255;1302;-49
2022/08/24 03:07:25;;;;;;;;;;;21.60;42.00;;;;;;464224;255;2093;-49
2022/08/24 03:09:26;;;;;;;;;;;21.60;42.10;;;;;;464140;255;1313;-49
2022/08/24 03:11:28;;;;;;;;;;;21.50;42.00;;;;;;464646;255;1359;-49
2022/08/24 03:13:29;;;;;;;;;;;21.50;42.10;;;;;;464388;255;1302;-49
2022/08/24 03:15:30;;;;;;;;;;;21.50;42.30;;;;;;464260;256;1263;-49
2022/08/24 03:17:32;;;;;;;;;;;21.50;42.30;;;;;;464299;255;2175;-48
2022/08/24 03:19:33;;;;;;;;;;;21.50;42.30;;;;;;464282;256;1282;-49
2022/08/24 03:21:34;;;;;;;;;;;21.50;42.20;;;;;;464661;255;1253;-49
2022/08/24 03:23:36;;;;;;;;;;;21.50;42.30;;;;;;464582;255;1295;-49
2022/08/24 03:25:37;;;;;;;;;;;21.60;42.20;;;;;;464664;255;1399;-49
2022/08/24 03:27:38;;;;;;;;;;;21.50;42.20;;;;;;464287;255;1339;-49
2022/08/24 03:29:40;;;;;;;;;;;21.50;42.20;;;;;;464252;255;1253;-48
2022/08/24 03:31:41;;;;;;;;;;;21.50;42.10;;;;;;464405;255;1291;-48
2022/08/24 03:33:42;;;;;;;;;;;21.50;42.10;;;;;;464647;255;1339;-49
2022/08/24 03:35:44;;;;;;;;;;;21.50;42.20;;;;;;464240;255;1307;-49
2022/08/24 03:37:46;;;;;;;;;;;21.50;42.10;;;;;;464642;255;2223;-49
2022/08/24 03:39:47;;;;;;;;;;;21.50;42.10;;;;;;464118;256;2471;-49
2022/08/24 03:41:48;;;;;;;;;;;21.50;42.10;;;;;;464213;256;1319;-49
2022/08/24 03:43:49;;;;;;;;;;;21.50;42.10;;;;;;464534;255;1239;-49
2022/08/24 03:45:51;;;;;;;;;;;21.50;42.10;;;;;;464249;256;1234;-49
2022/08/24 03:47:52;;;;;;;;;;;21.50;42.10;;;;;;464156;256;1329;-49
2022/08/24 03:49:55;;;;;;;;;;;21.60;42.10;;;;;;464428;255;1232;-49
2022/08/24 03:51:55;;;;;;;;;;;21.50;42.10;;;;;;464250;256;2408;-49
2022/08/24 03:53:56;;;;;;;;;;;21.50;42.10;;;;;;464654;255;1188;-49
2022/08/24 03:55:58;;;;;;;;;;;21.50;42.10;;;;;;464529;255;1321;-48
2022/08/24 03:57:59;;;;;;;;;;;21.50;42.10;;;;;;464632;255;2175;-49
2022/08/24 04:00:00;;;;;;;;;;;21.50;42.10;;;;;;464203;255;1261;-49
2022/08/24 04:02:02;;;;;;;;;;;21.50;42.10;;;;;;464669;255;1250;-49
2022/08/24 04:04:03;;;;;;;;;;;21.50;42.10;;;;;;464453;255;1659;-49
2022/08/24 04:06:04;;;;;;;;;;;21.50;42.00;;;;;;464239;256;1255;-48
2022/08/24 04:08:06;;;;;;;;;;;21.50;42.00;;;;;;464390;255;1234;-48
2022/08/24 04:10:07;;;;;;;;;;;21.60;42.10;;;;;;464336;255;1155;-49
2022/08/24 04:12:09;;;;;;;;;;;21.50;42.00;;;;;;464584;255;1345;-48
2022/08/24 04:14:10;;;;;;;;;;;21.50;42.00;;;;;;464436;255;1287;-49
2022/08/24 04:16:11;;;;;;;;;;;21.50;42.00;;;;;;464297;255;1275;-49
2022/08/24 04:18:13;;;;;;;;;;;21.50;41.90;;;;;;464241;256;2202;-49
2022/08/24 04:20:14;;;;;;;;;;;21.50;41.90;;;;;;464255;255;1298;-49
2022/08/24 04:22:15;;;;;;;;;;;21.50;42.00;;;;;;464674;255;1344;-48
2022/08/24 04:24:18;;;;;;;;;;;21.50;42.00;;;;;;464565;255;1324;-49
2022/08/24 04:26:18;;;;;;;;;;;21.50;42.00;;;;;;464665;255;2164;-49
2022/08/24 04:28:20;;;;;;;;;;;21.50;42.00;;;;;;464207;256;1324;-49
2022/08/24 04:30:21;;;;;;;;;;;21.50;41.90;;;;;;464189;255;1294;-49
2022/08/24 04:32:22;;;;;;;;;;;21.50;41.90;;;;;;464236;256;1265;-48
2022/08/24 04:34:24;;;;;;;;;;;21.50;41.90;;;;;;464209;256;1342;-49
2022/08/24 04:36:25;;;;;;;;;;;21.50;41.90;;;;;;464285;255;1258;-48
2022/08/24 04:38:27;;;;;;;;;;;21.50;41.90;;;;;;464582;255;2187;-48
2022/08/24 04:40:28;;;;;;;;;;;21.50;41.90;;;;;;464264;255;2176;-49
2022/08/24 04:42:30;;;;;;;;;;;21.50;41.80;;;;;;464245;256;1290;-49
2022/08/24 04:44:31;;;;;;;;;;;21.50;41.80;;;;;;464508;255;1950;-48
2022/08/24 04:46:32;;;;;;;;;;;21.50;41.80;;;;;;464681;255;1283;-49
2022/08/24 04:48:33;;;;;;;;;;;21.50;41.90;;;;;;464697;255;1269;-49
2022/08/24 04:50:35;;;;;;;;;;;21.50;41.90;;;;;;464665;255;1296;-49
2022/08/24 04:52:36;;;;;;;;;;;21.50;41.90;;;;;;464644;255;1256;-49
2022/08/24 04:54:37;;;;;;;;;;;21.50;42.00;;;;;;464672;255;1269;-49
2022/08/24 04:56:39;;;;;;;;;;;21.60;42.10;;;;;;464238;256;1392;-49
2022/08/24 04:58:40;;;;;;;;;;;21.50;42.20;;;;;;464694;255;2163;-48
2022/08/24 05:00:41;;;;;;;;;;;21.50;42.30;;;;;;464343;255;1435;-49
2022/08/24 05:02:43;;;;;;;;;;;21.50;42.30;;;;;;464697;255;1281;-49
2022/08/24 05:04:44;;;;;;;;;;;21.50;42.40;;;;;;464277;256;1372;-49
2022/08/24 05:06:45;;;;;;;;;;;21.50;42.50;;;;;;464243;256;1339;-49
2022/08/24 05:08:47;;;;;;;;;;;21.50;42.50;;;;;;464649;255;1224;-49
2022/08/24 05:10:49;;;;;;;;;;;21.50;42.50;;;;;;464689;255;1144;-49
2022/08/24 05:12:49;;;;;;;;;;;21.50;42.60;;;;;;464322;255;2060;-48
2022/08/24 05:14:51;;;;;;;;;;;21.50;42.70;;;;;;464399;255;1285;-49
2022/08/24 05:16:52;;;;;;;;;;;21.50;42.70;;;;;;464648;255;1416;-49
2022/08/24 05:18:53;;;;;;;;;;;21.50;42.60;;;;;;464400;255;2167;-49
2022/08/24 05:20:55;;;;;;;;;;;21.50;42.60;;;;;;464669;255;1292;-48
2022/08/24 05:22:56;;;;;;;;;;;21.50;42.50;;;;;;464470;255;1291;-48
2022/08/24 05:24:57;;;;;;;;;;;21.50;42.50;;;;;;464174;255;1355;-48
2022/08/24 05:26:59;;;;;;;;;;;21.50;42.40;;;;;;464289;256;1191;-48
2022/08/24 05:29:00;;;;;;;;;;;21.50;42.50;;;;;;464339;255;1149;-49
2022/08/24 05:31:01;;;;;;;;;;;21.50;42.40;;;;;;464303;255;1189;-49
2022/08/24 05:33:03;;;;;;;;;;;21.50;42.40;;;;;;464695;255;1111;-49
2022/08/24 05:35:04;;;;;;;;;;;21.50;42.30;;;;;;464557;255;1083;-49
2022/08/24 05:37:05;;;;;;;;;;;21.50;42.30;;;;;;464669;255;1282;-49
2022/08/24 05:39:07;;;;;;;;;;;21.50;42.30;;;;;;464682;255;2171;-49
2022/08/24 05:41:08;;;;;;;;;;;21.50;42.30;;;;;;464642;255;1254;-48
2022/08/24 05:43:09;;;;;;;;;;;21.50;42.30;;;;;;464508;255;1288;-48
2022/08/24 05:45:11;;;;;;;;;;;21.50;42.30;;;;;;464401;255;1193;-48
2022/08/24 05:47:12;;;;;;;;;;;21.50;42.30;;;;;;464229;256;1318;-48
2022/08/24 05:49:13;;;;;;;;;;;21.50;42.30;;;;;;464242;255;1284;-49
2022/08/24 05:51:16;;;;;;;;;;;21.50;42.30;;;;;;464236;256;1308;-49
2022/08/24 05:53:16;;;;;;;;;;;21.50;42.30;;;;;;464301;255;2303;-49
2022/08/24 05:55:17;;;;;;;;;;;21.50;42.30;;;;;;464237;256;1266;-49
2022/08/24 05:57:19;;;;;;;;;;;21.50;42.20;;;;;;464219;256;1200;-49
2022/08/24 05:59:21;;;;;;;;;;;21.50;42.20;;;;;;464379;255;2179;-48
2022/08/24 06:01:21;;;;;;;;;;;21.50;42.20;;;;;;464217;255;2234;-49
2022/08/24 06:03:23;;;;;;;;;;;21.50;42.20;;;;;;464139;256;1239;-49
2022/08/24 06:05:24;;;;;;;;;;;21.50;42.20;;;;;;464191;255;1278;-49
2022/08/24 06:07:26;;;;;;;;;;;21.50;42.20;;;;;;464207;256;1392;-49
2022/08/24 06:09:27;;;;;;;;;;;21.50;42.20;;;;;;464385;255;1294;-49
2022/08/24 06:11:29;;;;;;;;;;;21.50;42.20;;;;;;464123;255;1524;-49
2022/08/24 06:13:30;;;;;;;;;;;21.50;42.10;;;;;;464419;255;1231;-49
2022/08/24 06:15:31;;;;;;;;;;;21.50;42.10;;;;;;464152;256;1279;-49
2022/08/24 06:17:33;;;;;;;;;;;21.50;42.10;;;;;;464413;255;1217;-49
2022/08/24 06:19:34;;;;;;;;;;;21.50;42.20;;;;;;463910;256;2183;-49
2022/08/24 06:21:36;;;;;;;;;;;21.50;42.20;;;;;;464411;255;1488;-49
2022/08/24 06:23:37;;;;;;;;;;;21.50;42.20;;;;;;464060;255;2236;-49
2022/08/24 06:27:57;;;;;;;;;;;21.50;42.20;;;;;;464564;257;1234;-49
2022/08/24 06:29:58;;;;;;;;;;;21.50;42.20;;;;;;464512;255;1374;-49
2022/08/24 06:32:00;;;;;;;;;;;21.50;42.20;;;;;;464217;255;1687;-49
2022/08/24 06:34:01;;;;;;;;;;;21.50;42.20;;;;;;464364;255;1260;-49
2022/08/24 06:36:02;;;;;;;;;;;21.50;42.20;;;;;;463944;256;1254;-49
2022/08/24 06:38:04;;;;;;;;;;;21.50;42.20;;;;;;464507;255;1253;-49
2022/08/24 06:40:05;;;;;;;;;;;21.50;42.20;;;;;;464020;255;2205;-49
2022/08/24 06:42:06;;;;;;;;;;;21.50;42.20;;;;;;463866;256;1183;-49
2022/08/24 06:44:08;;;;;;;;;;;21.50;42.20;;;;;;464056;255;1217;-49
2022/08/24 06:46:09;;;;;;;;;;;21.50;42.20;;;;;;464311;255;1289;-49
2022/08/24 06:48:10;;;;;;;;;;;21.60;42.30;;;;;;464133;255;1150;-50
2022/08/24 06:50:12;;;;;;;;;;;21.50;42.20;;;;;;464122;255;1250;-49
2022/08/24 06:52:13;;;;;;;;;;;21.50;42.30;;;;;;464468;255;1244;-49
2022/08/24 06:54:14;;;;;;;;;;;21.50;42.40;;;;;;464117;255;1232;-49
2022/08/24 06:56:16;;;;;;;;;;;21.50;42.50;;;;;;464474;255;1233;-49
2022/08/24 06:58:17;;;;;;;;;;;21.50;42.60;;;;;;464261;255;1225;-49
2022/08/24 07:00:19;;;;;;;;;;;21.50;42.60;;;;;;464072;255;2206;-49
2022/08/24 07:02:20;;;;;;;;;;;21.50;42.50;;;;;;464120;255;1185;-49
2022/08/24 07:04:21;;;;;;;;;;;21.50;42.60;;;;;;464152;255;1199;-49
2022/08/24 07:06:23;;;;;;;;;;;21.50;42.50;;;;;;464009;256;1318;-50
2022/08/24 07:08:24;;;;;;;;;;;21.50;42.50;;;;;;464283;255;1250;-49
2022/08/24 07:10:25;;;;;;;;;;;21.50;42.50;;;;;;464038;256;1268;-49
2022/08/24 07:12:26;;;;;;;;;;;21.50;42.50;;;;;;463987;255;1229;-49
2022/08/24 07:14:28;;;;;;;;;;;21.50;42.50;;;;;;464111;256;1223;-49
2022/08/24 07:16:29;;;;;;;;;;;21.50;42.50;;;;;;464116;255;1237;-50
2022/08/24 07:18:31;;;;;;;;;;;21.50;42.50;;;;;;464425;255;1351;-49
2022/08/24 07:20:32;;;;;;;;;;;21.50;42.50;;;;;;463978;255;2190;-49
2022/08/24 07:22:33;;;;;;;;;;;21.50;42.50;;;;;;464010;255;1230;-49
2022/08/24 07:24:35;;;;;;;;;;;21.50;42.50;;;;;;463965;256;1217;-50
2022/08/24 07:26:36;;;;;;;;;;;21.50;42.50;;;;;;464378;255;1291;-49
2022/08/24 07:28:37;;;;;;;;;;;21.50;42.50;;;;;;464019;255;1234;-49
2022/08/24 07:30:39;;;;;;;;;;;21.50;42.50;;;;;;464158;255;1328;-49
2022/08/24 07:32:40;;;;;;;;;;;21.50;42.50;;;;;;463986;255;1304;-48
2022/08/24 07:34:42;;;;;;;;;;;21.50;42.50;;;;;;464174;255;1257;-49
2022/08/24 07:36:43;;;;;;;;;;;21.50;42.50;;;;;;464250;255;1262;-50
2022/08/24 07:38:45;;;;;;;;;;;21.50;42.50;;;;;;464012;255;2171;-49
2022/08/24 07:40:46;;;;;;;;;;;21.50;42.50;;;;;;463919;256;1380;-49
2022/08/24 07:42:48;;;;;;;;;;;21.50;42.50;;;;;;463906;256;1262;-49
2022/08/24 07:44:50;;;;;;;;;;;21.50;42.50;;;;;;464185;255;1261;-49
2022/08/24 07:46:51;;;;;;;;;;;21.50;42.50;;;;;;463889;256;2364;-49
2022/08/24 07:48:52;;;;;;;;;;;21.50;42.50;;;;;;463908;256;1559;-49
2022/08/24 07:50:53;;;;;;;;;;;21.50;42.50;;;;;;464065;255;1240;-50
2022/08/24 07:52:55;;;;;;;;;;;21.50;42.50;;;;;;463945;255;1283;-49
2022/08/24 07:54:56;;;;;;;;;;;21.50;42.50;;;;;;463961;256;1292;-49
2022/08/24 07:56:57;;;;;;;;;;;21.50;42.60;;;;;;464043;255;1294;-49
2022/08/24 07:58:58;;;;;;;;;;;21.50;42.50;;;;;;464102;255;2182;-49
2022/08/24 08:01:00;;;;;;;;;;;21.50;42.50;;;;;;464117;255;1229;-49
2022/08/24 08:03:03;;;;;;;;;;;21.50;42.60;;;;;;463990;255;1313;-50
2022/08/24 08:05:03;;;;;;;;;;;21.50;42.60;;;;;;464034;257;1449;-50
2022/08/24 08:07:06;;;;;;;;;;;21.50;42.50;;;;;;464333;255;1299;-49
2022/08/24 08:09:06;;;;;;;;;;;21.50;42.60;;;;;;463865;255;1311;-49
2022/08/24 08:11:07;;;;;;;;;;;21.50;42.60;;;;;;464015;255;1179;-49
2022/08/24 08:13:08;;;;;;;;;;;21.50;42.60;;;;;;464195;255;1351;-49
2022/08/24 08:15:10;;;;;;;;;;;21.50;42.60;;;;;;464141;255;1264;-49
2022/08/24 08:17:12;;;;;;;;;;;21.50;42.60;;;;;;464182;255;1310;-49
2022/08/24 08:19:12;;;;;;;;;;;21.50;42.60;;;;;;464108;255;2355;-49
2022/08/24 08:25:54;;;;;;;;;;;21.50;42.60;;;;;;464105;257;1272;-49
2022/08/24 08:27:55;;;;;;;;;;;21.50;42.70;;;;;;464007;255;1319;-49
2022/08/24 08:29:56;;;;;;;;;;;21.50;42.70;;;;;;464071;255;1196;-49
2022/08/24 08:31:58;;;;;;;;;;;21.50;42.70;;;;;;464000;256;1239;-49
2022/08/24 08:33:59;;;;;;;;;;;21.50;42.80;;;;;;464408;255;1255;-49
2022/08/24 08:36:01;;;;;;;;;;;21.50;42.90;;;;;;464121;255;1271;-49
2022/08/24 08:38:02;;;;;;;;;;;21.50;43.00;;;;;;464105;255;1244;-49
2022/08/24 08:40:03;;;;;;;;;;;21.50;43.00;;;;;;464202;255;2171;-50
2022/08/24 08:42:05;;;;;;;;;;;21.50;43.00;;;;;;464020;255;1245;-49
2022/08/24 08:44:06;;;;;;;;;;;21.50;43.00;;;;;;463940;255;1207;-49
2022/08/24 08:46:07;;;;;;;;;;;21.50;43.00;;;;;;464003;256;1215;-49
2022/08/24 08:48:09;;;;;;;;;;;21.50;43.00;;;;;;464014;255;1259;-49
2022/08/24 08:50:10;;;;;;;;;;;21.50;43.00;;;;;;463871;256;1302;-49
2022/08/24 08:52:11;;;;;;;;;;;21.50;43.00;;;;;;463878;256;1242;-49
2022/08/24 08:54:13;;;;;;;;;;;21.50;43.00;;;;;;464109;255;1204;-50
2022/08/24 08:56:14;;;;;;;;;;;21.60;43.00;;;;;;463920;255;1256;-49
2022/08/24 08:58:16;;;;;;;;;;;21.50;43.00;;;;;;463892;255;1242;-49
2022/08/24 09:00:17;;;;;;;;;;;21.50;43.00;;;;;;464035;255;2183;-49
2022/08/24 09:02:18;;;;;;;;;;;21.50;43.00;;;;;;464223;255;1399;-49
2022/08/24 09:04:19;;;;;;;;;;;21.50;43.00;;;;;;464108;255;1190;-49
2022/08/24 09:06:21;;;;;;;;;;;21.50;43.10;;;;;;464368;255;1223;-49
2022/08/24 09:08:22;;;;;;;;;;;21.60;43.00;;;;;;464295;255;1252;-49
2022/08/24 09:10:23;;;;;;;;;;;21.50;43.00;;;;;;464162;255;1224;-49
2022/08/24 09:12:26;;;;;;;;;;;21.50;43.00;;;;;;464017;255;1229;-50
2022/08/24 09:14:26;;;;;;;;;;;21.50;43.10;;;;;;464065;255;1616;-49
2022/08/24 09:16:27;;;;;;;;;;;21.50;43.00;;;;;;464133;255;1299;-49
2022/08/24 09:18:29;;;;;;;;;;;21.50;43.00;;;;;;464019;256;1276;-49
2022/08/24 09:20:30;;;;;;;;;;;21.50;43.10;;;;;;464138;255;2166;-49
2022/08/24 09:22:31;;;;;;;;;;;21.50;43.10;;;;;;464082;256;1319;-49
2022/08/24 09:24:33;;;;;;;;;;;21.50;43.10;;;;;;464363;255;1307;-49
2022/08/24 09:26:34;;;;;;;;;;;21.50;43.10;;;;;;464227;255;1218;-49
2022/08/24 09:28:35;;;;;;;;;;;21.50;43.10;;;;;;464166;255;1298;-49
2022/08/24 09:30:37;;;;;;;;;;;21.50;43.10;;;;;;464103;256;1356;-49
2022/08/24 09:32:38;;;;;;;;;;;21.50;43.10;;;;;;464475;255;1245;-49
2022/08/24 09:34:40;;;;;;;;;;;21.50;43.10;;;;;;464331;255;1175;-49
2022/08/24 09:36:41;;;;;;;;;;;21.50;43.10;;;;;;464205;256;1286;-50
2022/08/24 09:38:42;;;;;;;;;;;21.50;43.20;;;;;;464040;255;1231;-49
2022/08/24 09:40:44;;;;;;;;;;;21.50;43.10;;;;;;464103;255;2163;-49
2022/08/24 09:42:46;;;;;;;;;;;21.50;43.10;;;;;;464321;255;1227;-49
2022/08/24 09:44:47;;;;;;;;;;;21.50;43.10;;;;;;464128;255;1209;-50
2022/08/24 09:46:48;;;;;;;;;;;21.50;43.20;;;;;;464193;255;1205;-49
2022/08/24 09:48:50;;;;;;;;;;;21.50;43.20;;;;;;464158;255;1431;-49
2022/08/24 09:50:51;;;;;;;;;;;21.50;43.20;;;;;;464123;255;1207;-49
2022/08/24 09:52:52;;;;;;;;;;;21.50;43.20;;;;;;464036;255;1236;-49
2022/08/24 09:54:54;;;;;;;;;;;21.50;43.20;;;;;;463901;255;1228;-49
2022/08/24 09:56:55;;;;;;;;;;;21.50;43.20;;;;;;464095;255;1302;-49
2022/08/24 09:58:57;;;;;;;;;;;21.50;43.30;;;;;;464362;255;1416;-49
2022/08/24 10:00:59;;;;;;;;;;;21.50;43.30;;;;;;463973;256;2167;-49
2022/08/24 10:03:00;;;;;;;;;;;21.50;43.30;;;;;;464099;255;2396;-49
2022/08/24 10:05:01;;;;;;;;;;;21.60;43.30;;;;;;464140;255;1358;-49
2022/08/24 10:07:02;;;;;;;;;;;21.50;43.20;;;;;;464196;255;1305;-49
2022/08/24 10:09:03;;;;;;;;;;;21.50;43.30;;;;;;464193;255;1238;-49
2022/08/24 10:11:05;;;;;;;;;;;21.50;43.30;;;;;;463824;256;1290;-49
2022/08/24 10:13:06;;;;;;;;;;;21.60;43.30;;;;;;464057;255;1237;-49
2022/08/24 10:15:08;;;;;;;;;;;21.60;43.40;;;;;;463997;256;1226;-49
2022/08/24 10:17:09;;;;;;;;;;;21.60;43.50;;;;;;464037;255;1252;-49
2022/08/24 10:19:11;;;;;;;;;;;21.50;43.70;;;;;;464170;255;1196;-49
2022/08/24 10:21:12;;;;;;;;;;;21.50;43.60;;;;;;464090;256;2214;-50
2022/08/24 10:23:13;;;;;;;;;;;21.50;43.60;;;;;;464382;255;1187;-49
2022/08/24 10:25:15;;;;;;;;;;;21.50;43.70;;;;;;463837;256;1196;-49
2022/08/24 10:27:17;;;;;;;;;;;21.50;43.60;;;;;;464130;255;1197;-49
2022/08/24 10:29:18;;;;;;;;;;;21.60;43.70;;;;;;464086;255;1259;-49
2022/08/24 10:31:19;;;;;;;;;;;21.60;43.60;;;;;;464115;255;1185;-48
2022/08/24 10:33:21;;;;;;;;;;;21.60;43.70;;;;;;463997;256;1248;-49
2022/08/24 10:35:22;;;;;;;;;;;21.60;43.70;;;;;;464071;255;1263;-49
2022/08/24 10:37:23;;;;;;;;;;;21.60;43.60;;;;;;463784;256;1237;-49
2022/08/24 10:39:44;;;;;;;;;;;21.60;43.70;;;;;;463737;256;1536;-49
2022/08/24 10:41:44;;;;;;;;;;;21.60;43.60;;;;;;464037;255;1253;-49
2022/08/24 10:43:46;;;;;;;;;;;21.70;43.60;;;;;;464062;255;1206;-49
2022/08/24 10:45:48;;;;;;;;;;;21.60;43.50;;;;;;464110;256;1183;-50
2022/08/24 10:47:48;;;;;;;;;;;21.60;43.60;;;;;;463962;255;2283;-50
2022/08/24 10:49:50;;;;;;;;;;;21.70;43.60;;;;;;464095;255;1198;-49
2022/08/24 10:51:51;;;;;;;;;;;21.70;43.60;;;;;;463890;255;1362;-49
2022/08/24 10:53:52;;;;;;;;;;;21.70;43.70;;;;;;464266;255;1171;-49
2022/08/24 10:55:53;;;;;;;;;;;21.60;43.60;;;;;;464115;255;1086;-49
2022/08/24 10:57:55;;;;;;;;;;;21.60;43.50;;;;;;464043;256;1218;-49
2022/08/24 10:59:56;;;;;;;;;;;21.60;43.70;;;;;;464238;255;2174;-50
2022/08/24 11:01:58;;;;;;;;;;;21.60;43.70;;;;;;464252;255;1187;-50
2022/08/24 11:03:59;;;;;;;;;;;21.60;43.60;;;;;;464211;255;1381;-49
2022/08/24 11:06:00;;;;;;;;;;;21.60;43.60;;;;;;464113;256;1264;-49
2022/08/24 11:08:03;;;;;;;;;;;21.60;43.60;;;;;;463850;256;1171;-49
2022/08/24 11:10:05;;;;;;;;;;;21.60;43.60;;;;;;464031;255;2080;-49
2022/08/24 11:12:04;;;;;;;;;;;21.60;43.60;;;;;;463964;255;1957;-49
2022/08/24 11:14:06;;;;;;;;;;;21.60;43.70;;;;;;463897;255;1203;-49
2022/08/24 11:16:07;;;;;;;;;;;21.60;43.80;;;;;;463779;255;1329;-49
2022/08/24 11:18:08;;;;;;;;;;;21.60;43.70;;;;;;463862;255;1168;-49
2022/08/24 11:20:10;;;;;;;;;;;21.60;43.70;;;;;;463985;255;2214;-49
2022/08/24 11:22:11;;;;;;;;;;;21.60;43.80;;;;;;464019;255;1264;-49
2022/08/24 11:24:12;;;;;;;;;;;21.60;43.70;;;;;;464071;255;1595;-49
2022/08/24 11:26:14;;;;;;;;;;;21.60;43.70;;;;;;463966;255;1299;-50
2022/08/24 11:28:15;;;;;;;;;;;21.60;43.70;;;;;;464024;255;1413;-49
2022/08/24 11:30:17;;;;;;;;;;;21.60;43.70;;;;;;464158;255;1237;-50
2022/08/24 11:32:18;;;;;;;;;;;21.60;43.70;;;;;;463862;255;1574;-49
2022/08/24 11:34:20;;;;;;;;;;;21.60;43.70;;;;;;464223;255;1268;-49
2022/08/24 11:36:22;;;;;;;;;;;21.60;43.70;;;;;;464095;255;1705;-49
2022/08/24 11:38:22;;;;;;;;;;;21.60;43.80;;;;;;463914;255;2054;-50
2022/08/24 11:40:23;;;;;;;;;;;21.60;43.70;;;;;;463922;255;2171;-49
2022/08/24 11:42:25;;;;;;;;;;;21.60;43.80;;;;;;464258;255;1220;-49
2022/08/24 11:44:26;;;;;;;;;;;21.60;43.80;;;;;;463929;255;1115;-50
2022/08/24 11:46:27;;;;;;;;;;;21.60;43.80;;;;;;464045;255;1256;-49
2022/08/24 11:48:29;;;;;;;;;;;21.60;43.80;;;;;;464140;255;1341;-49
2022/08/24 11:50:30;;;;;;;;;;;21.60;43.80;;;;;;464008;255;1297;-50
2022/08/24 11:52:31;;;;;;;;;;;21.60;43.80;;;;;;463764;255;1245;-50
2022/08/24 11:54:33;;;;;;;;;;;21.60;43.80;;;;;;463844;256;1251;-49
2022/08/24 11:56:34;;;;;;;;;;;21.60;43.80;;;;;;464048;255;1310;-49
2022/08/24 11:58:35;;;;;;;;;;;21.60;43.90;;;;;;464224;255;1240;-48
2022/08/24 12:00:37;;;;;;;;;;;21.60;44.10;;;;;;464063;255;2176;-49
2022/08/24 12:02:38;;;;;;;;;;;21.60;44.10;;;;;;464044;256;1287;-49
2022/08/24 12:04:39;;;;;;;;;;;21.60;44.10;;;;;;464086;255;1241;-49
2022/08/24 12:06:41;;;;;;;;;;;21.60;44.00;;;;;;464034;256;1255;-49